Time;durP1;ratioP1;P1;durP2;ratioP2;P2;SDS_P1;SDS_P2;PMS_P1;PMS_P2;Temp;Humidity;BMP_temperature;BMP_pressure;BME280_temperature;BME280_humidity;BME280_pressure;Samples;Min_cycle;Max_cycle;Signal;HPM_P1;HPM_P2
2023/10/25 00:01:11;;;;;;;;;3.25;3.00;;;;;10.62;96.95;100054.25;5031902;28;9848;-70
2023/10/25 00:03:38;;;;;;;;;1.00;1.00;;;;;10.63;97.06;100050.53;5032020;28;9845;-69
2023/10/25 00:06:05;;;;;;;;;1.50;1.50;;;;;10.64;96.81;100052.16;5031609;28;9709;-70
2023/10/25 00:08:31;;;;;;;;;1.00;1.00;;;;;10.64;97.08;100044.91;5031374;28;9821;-70
2023/10/25 00:11:05;;;;;;;;;3.00;2.00;;;;;10.58;96.75;100042.28;5030229;28;10503;-69
2023/10/25 00:13:33;;;;;;;;;1.00;1.00;;;;;10.56;96.79;100033.56;5046895;28;10063;-70
2023/10/25 00:16:00;;;;;;;;;1.75;1.75;;;;;10.55;96.75;100031.94;5031367;28;9869;-70
2023/10/25 00:18:28;;;;;;;;;1.00;1.00;;;;;10.57;96.78;100032.53;5031286;28;9852;-70
2023/10/25 00:20:54;;;;;;;;;3.00;2.75;;;;;10.53;96.46;100028.63;5031515;28;9824;-70
2023/10/25 00:23:21;;;;;;;;;1.75;1.75;;;;;10.52;96.92;100029.66;5031097;28;9682;-70
2023/10/25 00:25:49;;;;;;;;;2.50;2.50;;;;;10.57;96.76;100029.84;5029904;28;9917;-70
2023/10/25 00:28:16;;;;;;;;;6.25;6.25;;;;;10.59;96.57;100031.28;5030833;28;10711;-71
2023/10/25 00:30:47;;;;;;;;;8.50;8.50;;;;;10.57;96.26;100036.06;5029995;28;10179;-71
2023/10/25 00:33:13;;;;;;;;;9.25;7.00;;;;;10.58;96.28;100035.03;5029981;28;11034;-70
2023/10/25 00:35:40;;;;;;;;;5.00;3.00;;;;;10.59;96.33;100033.16;5029655;28;10261;-70
2023/10/25 00:38:07;;;;;;;;;6.00;6.00;;;;;10.54;96.17;100041.88;5030348;28;10101;-70
2023/10/25 00:40:34;;;;;;;;;5.50;3.00;;;;;10.57;96.44;100045.97;5029388;28;10151;-70
2023/10/25 00:43:19;;;;;;;;;4.50;4.50;;;;;10.52;96.12;100051.19;5029299;28;10104;-68
2023/10/25 00:46:06;;;;;;;;;2.50;2.50;;;;;10.54;96.14;100047.25;5030765;28;10143;-67
2023/10/25 00:48:35;;;;;;;;;3.00;3.00;;;;;10.52;96.37;100046.63;5030487;28;10128;-71
2023/10/25 00:51:03;;;;;;;;;3.50;3.50;;;;;10.53;96.31;100039.38;5012573;28;10184;-69
2023/10/25 00:53:32;;;;;;;;;6.00;6.00;;;;;10.54;96.20;100033.81;5045810;28;10158;-68
2023/10/25 00:56:01;;;;;;;;;8.25;6.25;;;;;10.50;95.50;100029.06;5029207;28;10122;-67
2023/10/25 00:58:30;;;;;;;;;5.25;5.00;;;;;10.48;96.11;100023.06;5029072;28;10245;-68
2023/10/25 01:00:58;;;;;;;;;6.00;6.00;;;;;10.49;95.61;100019.31;5012721;28;10087;-68
2023/10/25 01:03:25;;;;;;;;;7.25;6.00;;;;;10.44;96.18;100011.06;5029097;28;10227;-69
2023/10/25 01:05:52;;;;;;;;;6.00;6.00;;;;;10.46;96.44;100017.91;5045606;28;10216;-68
2023/10/25 01:08:19;;;;;;;;;6.50;5.00;;;;;10.50;96.48;100018.28;5045171;28;10045;-69
2023/10/25 01:10:51;;;;;;;;;5.00;4.00;;;;;10.50;95.96;100008.34;5045623;28;10084;-68
2023/10/25 01:13:18;;;;;;;;;5.00;5.00;;;;;10.50;95.83;100012.91;5029142;28;9905;-70
2023/10/25 01:15:46;;;;;;;;;12.50;12.50;;;;;10.44;96.24;100003.81;5030590;28;10018;-69
2023/10/25 01:18:13;;;;;;;;;12.00;10.00;;;;;10.43;96.29;99996.78;5028701;28;10252;-70
2023/10/25 01:20:40;;;;;;;;;9.00;9.00;;;;;10.41;95.95;100001.53;5030540;28;10418;-68
2023/10/25 01:23:07;;;;;;;;;13.50;12.75;;;;;10.29;95.96;100000.56;5028660;28;10318;-69
2023/10/25 01:25:34;;;;;;;;;17.75;13.25;;;;;10.31;96.53;99998.50;5012372;28;10549;-68
2023/10/25 01:28:01;;;;;;;;;10.00;9.50;;;;;10.34;95.72;100001.59;5044734;28;10348;-69
2023/10/25 01:30:28;;;;;;;;;14.25;12.00;;;;;10.32;96.24;100009.03;5028657;28;10300;-69
2023/10/25 01:32:54;;;;;;;;;9.50;9.00;;;;;10.32;96.49;100008.22;5028467;28;10394;-69
2023/10/25 01:35:22;;;;;;;;;6.25;6.25;;;;;10.35;95.95;100002.41;5028585;28;10444;-69
2023/10/25 01:37:48;;;;;;;;;12.00;10.50;;;;;10.35;96.03;100011.31;5029197;28;10540;-68
2023/10/25 01:40:15;;;;;;;;;12.25;11.50;;;;;10.32;96.25;100002.84;5029602;28;10490;-69
2023/10/25 01:42:43;;;;;;;;;13.75;11.50;;;;;10.31;95.88;99999.31;5012004;28;10353;-69
2023/10/25 01:45:11;;;;;;;;;8.75;8.75;;;;;10.33;95.87;99994.56;5029656;28;10575;-68
2023/10/25 01:47:38;;;;;;;;;14.75;11.00;;;;;10.36;95.41;99996.00;5028014;28;10306;-68
2023/10/25 01:50:07;;;;;;;;;11.25;10.00;;;;;10.34;95.76;99998.91;5044812;28;10380;-69
2023/10/25 01:52:34;;;;;;;;;8.50;7.50;;;;;10.34;95.50;99998.09;5028299;28;10382;-69
2023/10/25 01:55:01;;;;;;;;;10.00;8.50;;;;;10.35;95.46;99997.84;5011983;28;11115;-69
2023/10/25 01:57:27;;;;;;;;;11.75;11.50;;;;;10.29;95.65;99996.03;5027805;28;10302;-69
2023/10/25 01:59:54;;;;;;;;;14.50;10.75;;;;;10.27;95.67;99995.41;5044809;28;10371;-69
2023/10/25 02:02:20;;;;;;;;;14.00;12.25;;;;;10.25;95.16;99999.34;5027753;28;10331;-68
2023/10/25 02:04:47;;;;;;;;;13.25;11.75;;;;;10.18;95.22;99991.28;5028462;28;10426;-69
2023/10/25 02:07:14;;;;;;;;;16.50;16.00;;;;;10.13;95.62;99996.47;5029062;28;11134;-70
2023/10/25 02:09:40;;;;;;;;;11.50;11.50;;;;;10.15;95.71;99995.22;5044753;28;10560;-69
2023/10/25 02:12:07;;;;;;;;;12.50;11.25;;;;;10.11;95.65;99983.22;5029279;28;10402;-68
2023/10/25 02:14:34;;;;;;;;;17.50;16.00;;;;;10.09;95.60;99982.63;5029270;28;10501;-68
2023/10/25 02:17:01;;;;;;;;;16.50;10.25;;;;;10.12;95.90;99975.97;5044247;28;10645;-69
2023/10/25 02:19:28;;;;;;;;;11.25;11.25;;;;;10.10;95.63;99978.91;5029380;28;11133;-69
2023/10/25 02:21:54;;;;;;;;;12.25;11.75;;;;;10.08;95.79;99972.06;5029373;28;10482;-69
2023/10/25 02:24:21;;;;;;;;;14.00;14.00;;;;;10.06;95.92;99971.47;5027900;28;10381;-69
2023/10/25 02:26:49;;;;;;;;;15.25;13.25;;;;;10.07;95.95;99965.88;5027661;28;10712;-68
2023/10/25 02:29:16;;;;;;;;;13.00;13.00;;;;;10.06;95.36;99960.72;5044583;28;11489;-68
2023/10/25 02:31:43;;;;;;;;;12.25;12.25;;;;;10.10;95.83;99964.63;5027974;28;10550;-68
2023/10/25 02:34:09;;;;;;;;;11.00;11.00;;;;;10.12;95.52;99959.84;5029141;28;10562;-69
2023/10/25 02:36:36;;;;;;;;;14.50;12.00;;;;;10.09;95.13;99957.59;5028711;28;11256;-69
2023/10/25 02:39:02;;;;;;;;;13.25;12.50;;;;;10.07;95.68;99954.28;5029134;28;11354;-69
2023/10/25 02:41:29;;;;;;;;;11.25;10.75;;;;;10.05;95.60;99957.19;5029179;28;10444;-69
2023/10/25 02:43:59;;;;;;;;;12.00;11.25;;;;;10.05;95.85;99961.75;5027823;28;11114;-68
2023/10/25 02:46:26;;;;;;;;;13.50;11.00;;;;;10.06;95.58;99955.34;5027365;28;10480;-68
2023/10/25 02:48:53;;;;;;;;;16.25;14.75;;;;;10.08;95.58;99955.94;5027795;28;10560;-69
2023/10/25 02:51:20;;;;;;;;;12.00;11.25;;;;;10.04;95.64;99955.53;5027523;28;11688;-69
2023/10/25 02:53:46;;;;;;;;;11.75;10.75;;;;;10.09;95.74;99947.66;5029111;28;10951;-68
2023/10/25 02:56:13;;;;;;;;;10.00;8.50;;;;;10.09;95.30;99954.91;5027335;28;11379;-69
2023/10/25 02:58:39;;;;;;;;;11.75;9.50;;;;;10.08;95.48;99951.38;5027568;28;10545;-69
2023/10/25 03:01:06;;;;;;;;;8.00;7.00;;;;;10.07;95.11;99951.59;5028935;28;10614;-69
2023/10/25 03:03:34;;;;;;;;;11.50;10.75;;;;;10.04;95.24;99950.16;5029297;28;10506;-69
2023/10/25 03:06:00;;;;;;;;;10.00;9.50;;;;;10.06;95.46;99947.25;5027373;28;10687;-68
2023/10/25 03:08:27;;;;;;;;;14.00;12.75;;;;;10.00;95.69;99948.09;5027499;28;10545;-68
2023/10/25 03:10:55;;;;;;;;;15.50;14.00;;;;;10.02;95.38;99951.41;5044262;28;10722;-68
2023/10/25 03:13:21;;;;;;;;;14.00;11.50;;;;;10.00;95.29;99950.78;5029570;28;10629;-68
2023/10/25 03:15:48;;;;;;;;;12.75;11.50;;;;;10.00;95.30;99953.47;5032555;28;10661;-69
2023/10/25 03:18:15;;;;;;;;;13.50;13.25;;;;;9.96;95.06;99946.88;5032041;28;10715;-69
2023/10/25 03:20:41;;;;;;;;;13.50;11.75;;;;;9.96;95.38;99947.69;5032336;28;10707;-69
2023/10/25 03:23:08;;;;;;;;;12.25;9.50;;;;;9.97;95.60;99948.53;5031020;28;10535;-69
2023/10/25 03:25:34;;;;;;;;;14.75;12.00;;;;;9.93;95.49;99941.94;5032376;28;10485;-69
2023/10/25 03:28:01;;;;;;;;;8.75;8.50;;;;;9.92;94.97;99943.78;5047092;28;10578;-69
2023/10/25 03:30:28;;;;;;;;;10.50;10.50;;;;;9.90;95.41;99943.19;5032183;28;10504;-69
2023/10/25 03:32:54;;;;;;;;;14.75;13.25;;;;;9.89;95.54;99945.06;5047505;28;10501;-68
2023/10/25 03:35:21;;;;;;;;;15.50;9.75;;;;;9.87;95.20;99938.22;5030754;28;11403;-69
2023/10/25 03:37:47;;;;;;;;;13.25;13.25;;;;;9.87;95.26;99939.03;5030512;28;10711;-69
2023/10/25 03:40:14;;;;;;;;;7.50;7.00;;;;;9.85;95.71;99933.06;5032186;28;10542;-68
2023/10/25 03:42:41;;;;;;;;;13.25;11.50;;;;;9.83;95.58;99935.13;5047444;28;10377;-69
2023/10/25 03:45:08;;;;;;;;;10.00;8.00;;;;;9.81;95.40;99931.84;5032136;28;10449;-69
2023/10/25 03:47:37;;;;;;;;;11.00;10.00;;;;;9.78;95.39;99926.06;5030329;28;10387;-69
2023/10/25 03:50:06;;;;;;;;;11.25;8.50;;;;;9.75;95.52;99924.59;5030459;28;10776;-69
2023/10/25 03:52:34;;;;;;;;;8.75;8.75;;;;;9.78;95.70;99924.19;5047360;28;10521;-69
2023/10/25 03:55:01;;;;;;;;;9.25;9.25;;;;;9.79;95.47;99919.63;5032025;28;10377;-68
2023/10/25 03:57:28;;;;;;;;;5.75;5.75;;;;;9.79;95.45;99909.72;5031585;28;10485;-68
2023/10/25 03:59:54;;;;;;;;;11.00;8.00;;;;;9.80;95.62;99910.53;5031793;28;10356;-68
2023/10/25 04:02:21;;;;;;;;;10.00;8.00;;;;;9.79;95.29;99912.41;5013862;28;10432;-69
2023/10/25 04:04:48;;;;;;;;;12.50;11.75;;;;;9.78;95.12;99907.25;5046859;28;10763;-69
2023/10/25 04:07:14;;;;;;;;;7.25;7.00;;;;;9.76;95.15;99904.75;5030353;28;10613;-69
2023/10/25 04:09:41;;;;;;;;;11.25;10.00;;;;;9.78;95.26;99907.25;5031719;28;10683;-69
2023/10/25 04:12:12;;;;;;;;;10.00;10.00;;;;;9.76;94.58;99904.75;5031747;28;10546;-69
2023/10/25 04:14:42;;;;;;;;;11.75;11.50;;;;;9.74;94.86;99903.34;5030665;28;10690;-70
2023/10/25 04:17:09;;;;;;;;;10.75;9.00;;;;;9.73;95.00;99907.06;5031597;28;10692;-69
2023/10/25 04:19:36;;;;;;;;;8.75;7.75;;;;;9.71;94.81;99896.50;5031651;28;10645;-70
2023/10/25 04:22:03;;;;;;;;;11.00;10.25;;;;;9.68;94.63;99899.59;5031338;28;10504;-69
2023/10/25 04:24:30;;;;;;;;;9.00;9.00;;;;;9.65;94.58;99897.38;5031296;28;10686;-69
2023/10/25 04:26:56;;;;;;;;;11.75;11.75;;;;;9.63;94.89;99894.88;5030357;28;10620;-69
2023/10/25 04:29:22;;;;;;;;;11.75;10.50;;;;;9.61;94.66;99896.13;5046578;28;10560;-69
2023/10/25 04:31:49;;;;;;;;;10.25;8.00;;;;;9.57;94.78;99889.53;5031241;28;10565;-69
2023/10/25 04:34:16;;;;;;;;;12.25;11.50;;;;;9.53;94.68;99893.69;5030983;28;10633;-69
2023/10/25 04:36:42;;;;;;;;;11.50;11.50;;;;;9.51;95.51;99888.50;5029804;28;10717;-69
2023/10/25 04:39:09;;;;;;;;;12.00;10.75;;;;;9.54;95.52;99889.94;5031123;28;10705;-70
2023/10/25 04:41:36;;;;;;;;;12.25;7.25;;;;;9.56;95.57;99879.81;5031076;28;10620;-69
2023/10/25 04:44:03;;;;;;;;;8.25;8.25;;;;;9.57;95.32;99879.63;5031074;28;11353;-70
2023/10/25 04:46:30;;;;;;;;;10.00;10.00;;;;;9.54;95.00;99871.97;5030781;28;10621;-70
2023/10/25 04:48:56;;;;;;;;;10.00;8.50;;;;;9.56;95.37;99874.44;5030958;28;10782;-69
2023/10/25 04:51:23;;;;;;;;;2.00;2.00;;;;;9.56;94.92;99869.06;5030961;28;10606;-70
2023/10/25 04:53:49;;;;;;;;;11.75;11.00;;;;;9.56;94.93;99869.06;5045987;28;10373;-70
2023/10/25 04:56:21;;;;;;;;;9.50;9.25;;;;;9.55;95.14;99870.94;5030101;28;10709;-69
2023/10/25 04:58:47;;;;;;;;;8.00;7.25;;;;;9.55;94.90;99868.22;5012975;28;10588;-70
2023/10/25 05:01:14;;;;;;;;;11.50;8.00;;;;;9.57;94.99;99862.66;5030425;28;10614;-69
2023/10/25 05:03:44;;;;;;;;;7.25;6.75;;;;;9.59;95.07;99863.28;5029409;28;11364;-70
2023/10/25 05:06:11;;;;;;;;;7.50;7.00;;;;;9.59;94.89;99863.28;5030260;28;10442;-70
2023/10/25 05:08:38;;;;;;;;;8.00;8.00;;;;;9.60;94.82;99857.72;5030363;28;11253;-70
2023/10/25 05:11:06;;;;;;;;;9.75;7.25;;;;;9.60;95.11;99856.84;5030551;28;10497;-70
2023/10/25 05:13:33;;;;;;;;;15.25;10.00;;;;;9.58;94.92;99849.00;5029005;28;10585;-70
2023/10/25 05:16:00;;;;;;;;;9.75;9.75;;;;;9.56;95.17;99845.72;5028793;28;10571;-70
2023/10/25 05:18:27;;;;;;;;;8.00;8.00;;;;;9.57;94.80;99839.31;5030011;28;10609;-69
2023/10/25 05:21:01;;;;;;;;;7.50;5.00;;;;;9.60;95.22;99843.41;5030231;28;10462;-70
2023/10/25 05:23:32;;;;;;;;;7.00;7.00;;;;;9.62;95.13;99838.66;5030140;28;10465;-70
2023/10/25 05:26:03;;;;;;;;;8.00;7.00;;;;;9.62;95.28;99839.50;5030056;28;10513;-70
2023/10/25 05:28:31;;;;;;;;;7.00;7.00;;;;;9.62;95.36;99828.75;5029948;28;10440;-70
2023/10/25 05:31:02;;;;;;;;;6.00;6.00;;;;;9.65;95.16;99833.69;5012309;28;10292;-70
2023/10/25 05:33:33;;;;;;;;;7.50;6.50;;;;;9.65;95.01;99839.06;5029935;28;10339;-70
2023/10/25 05:36:01;;;;;;;;;6.75;5.00;;;;;9.65;95.05;99822.13;5045465;28;10565;-70
2023/10/25 05:38:27;;;;;;;;;6.00;5.25;;;;;9.67;94.93;99825.41;5044125;28;10399;-70
2023/10/25 05:40:55;;;;;;;;;5.00;5.00;;;;;9.66;95.13;99827.28;5029773;28;11108;-70
2023/10/25 05:43:28;;;;;;;;;8.00;6.50;;;;;9.67;95.16;99822.72;5029779;28;10501;-70
2023/10/25 05:45:54;;;;;;;;;7.50;5.75;;;;;9.63;95.44;99819.63;5028730;28;10419;-69
2023/10/25 05:48:21;;;;;;;;;9.75;7.75;;;;;9.66;95.23;99819.22;5029393;28;10529;-69
2023/10/25 05:50:50;;;;;;;;;6.00;5.75;;;;;9.70;95.17;99822.31;5028544;28;10445;-69
2023/10/25 05:53:18;;;;;;;;;6.00;6.00;;;;;9.70;95.31;99825.00;5028645;28;11181;-69
2023/10/25 05:55:45;;;;;;;;;7.00;7.00;;;;;9.73;95.57;99829.94;5045040;28;10714;-69
2023/10/25 05:58:12;;;;;;;;;6.00;6.00;;;;;9.76;95.46;99832.19;5029555;28;10471;-69
2023/10/25 06:00:39;;;;;;;;;5.50;5.50;;;;;9.76;94.91;99836.75;5029786;28;10490;-69
2023/10/25 06:03:08;;;;;;;;;6.50;6.00;;;;;9.76;95.23;99828.69;5028426;28;10478;-69
2023/10/25 06:05:56;;;;;;;;;5.75;5.25;;;;;9.76;95.40;99829.50;5044737;28;10442;-69
2023/10/25 06:08:23;;;;;;;;;5.50;5.25;;;;;9.77;95.17;99817.75;5027822;28;10381;-69
2023/10/25 06:10:50;;;;;;;;;6.25;4.25;;;;;9.79;95.58;99826.41;5028574;28;10529;-69
2023/10/25 06:13:17;;;;;;;;;6.00;6.00;;;;;9.80;94.96;99820.00;5028241;28;11209;-69
2023/10/25 06:15:45;;;;;;;;;7.75;7.25;;;;;9.82;94.94;99820.59;5029505;28;10354;-69
2023/10/25 06:18:12;;;;;;;;;9.50;7.00;;;;;9.80;94.80;99819.16;5029401;28;10515;-69
2023/10/25 06:20:38;;;;;;;;;5.50;5.50;;;;;9.82;95.03;99822.47;5028282;28;11283;-69
2023/10/25 06:23:05;;;;;;;;;7.00;7.00;;;;;9.80;94.99;99820.00;5029564;28;10372;-69
2023/10/25 06:25:32;;;;;;;;;7.00;7.00;;;;;9.82;95.14;99817.09;5044755;28;10376;-69
2023/10/25 06:27:59;;;;;;;;;9.75;9.00;;;;;9.83;95.31;99814.19;5027694;28;10520;-69
2023/10/25 06:30:27;;;;;;;;;10.00;7.00;;;;;9.85;95.16;99817.50;5044711;28;10616;-69
2023/10/25 06:32:54;;;;;;;;;7.00;6.75;;;;;9.85;95.33;99811.28;5028455;28;10443;-69
2023/10/25 06:35:20;;;;;;;;;6.50;6.50;;;;;9.87;95.02;99823.47;5028089;28;10369;-69
2023/10/25 06:37:47;;;;;;;;;6.50;6.00;;;;;9.86;95.24;99812.94;5029232;28;10425;-69
2023/10/25 06:40:14;;;;;;;;;8.25;7.00;;;;;9.86;95.13;99810.25;5011800;28;10444;-69
2023/10/25 06:42:41;;;;;;;;;5.75;5.00;;;;;9.86;95.28;99802.19;5027949;28;10439;-69
2023/10/25 06:45:12;;;;;;;;;6.50;6.00;;;;;9.87;94.95;99790.38;5029134;28;10391;-69
2023/10/25 06:47:39;;;;;;;;;7.00;7.00;;;;;9.83;94.97;99792.66;5029197;28;10446;-69
2023/10/25 06:50:06;;;;;;;;;9.50;6.00;;;;;9.84;95.23;99790.81;5031266;28;10299;-69
2023/10/25 06:52:33;;;;;;;;;6.25;5.50;;;;;9.85;94.86;99784.41;5031407;28;10548;-71
2023/10/25 06:55:00;;;;;;;;;7.50;6.25;;;;;9.83;95.12;99781.91;5031423;28;10391;-69
2023/10/25 06:57:26;;;;;;;;;9.00;8.00;;;;;9.84;95.12;99775.53;5032319;28;10294;-69
2023/10/25 06:59:53;;;;;;;;;6.75;6.75;;;;;9.84;95.02;99782.75;5031507;28;10518;-69
2023/10/25 07:02:50;;;;;;;;;8.00;8.00;;;;;9.80;95.16;99790.44;5032632;28;11245;-69
2023/10/25 07:05:19;;;;;;;;;10.00;8.75;;;;;9.75;95.08;99790.22;5032540;28;11182;-69
2023/10/25 07:07:49;;;;;;;;;10.00;7.25;;;;;9.73;95.21;99784.25;5032267;28;10456;-69
2023/10/25 07:10:16;;;;;;;;;10.50;7.50;;;;;9.67;95.33;99785.09;5031400;28;10620;-69
2023/10/25 07:12:43;;;;;;;;;9.00;9.00;;;;;9.65;95.34;99773.75;5031141;28;10603;-69
2023/10/25 07:15:11;;;;;;;;;11.75;8.50;;;;;9.62;95.63;99772.31;5032338;28;10993;-69
2023/10/25 07:17:38;;;;;;;;;8.50;8.50;;;;;9.65;95.57;99771.06;5031953;28;10608;-69
2023/10/25 07:20:09;;;;;;;;;7.25;7.25;;;;;9.65;95.56;99769.22;5032092;28;10651;-69
2023/10/25 07:22:36;;;;;;;;;11.75;11.75;;;;;9.65;96.03;99760.34;5032336;28;10764;-69
2023/10/25 07:25:02;;;;;;;;;12.75;11.00;;;;;9.64;95.83;99762.19;5032712;28;10734;-69
2023/10/25 07:27:29;;;;;;;;;10.75;9.50;;;;;9.65;95.61;99749.59;5014274;28;10565;-69
2023/10/25 07:29:56;;;;;;;;;8.00;8.00;;;;;9.69;95.81;99747.28;5031209;28;10624;-69
2023/10/25 07:32:22;;;;;;;;;10.50;8.50;;;;;9.67;95.67;99744.81;5030936;28;10513;-69
2023/10/25 07:34:49;;;;;;;;;7.75;7.75;;;;;9.70;95.96;99748.94;5030796;28;10574;-69
2023/10/25 07:37:15;;;;;;;;;8.25;7.75;;;;;9.71;95.98;99747.88;5030526;28;10470;-69
2023/10/25 07:39:42;;;;;;;;;11.25;9.00;;;;;9.71;95.92;99737.13;5031843;28;11200;-69
2023/10/25 07:42:08;;;;;;;;;9.25;8.50;;;;;9.74;95.98;99736.72;5031914;28;10483;-69
2023/10/25 07:44:35;;;;;;;;;7.00;7.00;;;;;9.75;96.10;99725.75;5031672;28;11080;-69
2023/10/25 07:47:02;;;;;;;;;8.00;7.25;;;;;9.76;95.36;99735.44;5031380;28;10425;-69
2023/10/25 07:49:34;;;;;;;;;12.75;11.00;;;;;9.75;95.60;99733.81;5030554;28;10446;-69
2023/10/25 07:52:02;;;;;;;;;9.00;9.00;;;;;9.73;95.36;99733.22;5031875;28;10796;-69
2023/10/25 07:54:29;;;;;;;;;8.75;8.75;;;;;9.74;95.53;99729.47;5031568;28;10507;-69
2023/10/25 07:56:55;;;;;;;;;8.75;8.00;;;;;9.76;95.77;99732.75;5046649;28;10447;-69
2023/10/25 07:59:25;;;;;;;;;9.50;9.50;;;;;9.78;95.80;99732.56;5030155;28;10477;-69
2023/10/25 08:01:51;;;;;;;;;17.00;11.00;;;;;9.78;95.81;99730.69;5029937;28;10732;-69
2023/10/25 08:04:18;;;;;;;;;13.00;13.00;;;;;9.77;95.85;99730.91;5031618;28;10621;-69
2023/10/25 08:06:45;;;;;;;;;12.00;11.00;;;;;9.76;95.49;99724.69;5030922;28;10708;-69
2023/10/25 08:09:12;;;;;;;;;13.00;13.00;;;;;9.77;95.68;99721.00;5031584;28;10539;-69
2023/10/25 08:11:38;;;;;;;;;15.00;15.00;;;;;9.77;95.82;99717.47;5031502;28;10621;-69
2023/10/25 08:14:05;;;;;;;;;12.00;12.00;;;;;9.79;95.79;99716.19;5031103;28;10602;-69
2023/10/25 08:16:32;;;;;;;;;14.50;12.75;;;;;9.82;95.59;99715.78;5029856;28;10610;-69
2023/10/25 08:18:59;;;;;;;;;13.00;11.25;;;;;9.84;95.67;99711.03;5031243;28;10703;-69
2023/10/25 08:21:25;;;;;;;;;11.75;11.75;;;;;9.85;95.69;99707.28;5031836;28;10562;-69
2023/10/25 08:23:52;;;;;;;;;10.00;10.00;;;;;9.86;95.61;99705.41;5031127;28;10711;-70
2023/10/25 08:26:21;;;;;;;;;13.00;11.00;;;;;9.85;95.84;99704.59;5029457;28;10595;-69
2023/10/25 08:28:48;;;;;;;;;8.25;8.25;;;;;9.87;95.53;99704.38;5029832;28;10509;-69
2023/10/25 08:31:17;;;;;;;;;8.00;8.00;;;;;9.88;95.87;99698.78;5029840;28;10346;-69
2023/10/25 08:33:44;;;;;;;;;9.00;8.00;;;;;9.89;95.95;99705.81;5029819;28;10449;-69
2023/10/25 08:36:11;;;;;;;;;8.50;8.50;;;;;9.93;95.93;99708.06;5029441;28;10327;-69
2023/10/25 08:38:37;;;;;;;;;8.50;7.50;;;;;9.95;96.03;99708.66;5029720;28;10355;-69
2023/10/25 08:41:05;;;;;;;;;9.25;8.75;;;;;9.99;95.92;99704.50;5029522;28;10402;-69
2023/10/25 08:43:33;;;;;;;;;9.50;7.50;;;;;10.02;95.43;99704.06;5030595;28;11274;-69
2023/10/25 08:46:03;;;;;;;;;8.00;8.00;;;;;10.06;95.76;99706.09;5029396;28;10530;-69
2023/10/25 08:48:31;;;;;;;;;7.00;7.00;;;;;10.10;95.68;99701.94;5030700;28;10367;-69
2023/10/25 08:51:03;;;;;;;;;6.50;6.50;;;;;10.14;95.65;99703.13;5030771;28;11055;-70
2023/10/25 08:53:30;;;;;;;;;5.25;5.25;;;;;10.17;95.53;99701.88;5030720;28;10430;-70
2023/10/25 08:55:58;;;;;;;;;8.50;8.00;;;;;10.15;95.02;99701.25;5030133;28;10510;-70
2023/10/25 08:58:25;;;;;;;;;7.75;6.75;;;;;10.12;94.74;99699.00;5012443;28;10374;-70
2023/10/25 09:00:53;;;;;;;;;7.00;6.00;;;;;10.14;95.39;99697.75;5030310;28;10339;-70
2023/10/25 09:03:32;;;;;;;;;4.50;4.50;;;;;10.16;95.14;99692.16;5030480;28;10288;-69
2023/10/25 09:05:59;;;;;;;;;5.50;5.50;;;;;10.16;95.25;99684.91;5030317;28;10326;-69
2023/10/25 09:08:26;;;;;;;;;7.75;6.00;;;;;10.18;95.08;99687.38;5028585;28;10143;-70
2023/10/25 09:11:02;;;;;;;;;10.00;7.00;;;;;10.21;94.92;99686.97;5029892;28;10274;-70
2023/10/25 09:13:33;;;;;;;;;6.00;6.00;;;;;10.25;94.92;99687.34;5030277;28;10893;-69
2023/10/25 09:16:11;;;;;;;;;4.00;3.00;;;;;10.27;94.84;99687.97;5028732;28;10151;-70
2023/10/25 09:18:40;;;;;;;;;9.00;6.00;;;;;10.29;94.77;99683.16;5028817;28;10783;-70
2023/10/25 09:21:08;;;;;;;;;3.00;3.00;;;;;10.29;94.54;99684.03;5028719;28;10155;-70
2023/10/25 09:23:39;;;;;;;;;7.50;6.75;;;;;10.29;94.99;99681.31;5030142;28;10131;-69
2023/10/25 09:26:16;;;;;;;;;7.25;6.50;;;;;10.31;94.86;99679.22;5028636;28;10352;-70
2023/10/25 09:28:47;;;;;;;;;6.75;6.75;;;;;10.32;94.81;99674.66;5028838;28;10152;-69
2023/10/25 09:31:27;;;;;;;;;7.00;7.00;;;;;10.31;94.38;99673.84;5030098;28;10197;-70
2023/10/25 09:33:57;;;;;;;;;7.50;7.00;;;;;10.30;94.74;99677.59;5029891;28;10225;-70
2023/10/25 09:36:24;;;;;;;;;8.00;7.50;;;;;10.33;94.78;99679.84;5011872;28;10222;-69
2023/10/25 09:38:53;;;;;;;;;7.50;7.50;;;;;10.37;94.86;99677.50;5029715;28;11416;-69
2023/10/25 09:41:20;;;;;;;;;8.00;7.00;;;;;10.36;94.63;99674.00;5029755;28;10299;-70
2023/10/25 09:43:51;;;;;;;;;11.00;11.00;;;;;10.33;94.78;99674.47;5044783;28;10284;-70
2023/10/25 09:46:20;;;;;;;;;7.25;6.25;;;;;10.33;94.45;99670.91;5029358;28;10318;-70
2023/10/25 09:48:53;;;;;;;;;6.00;6.00;;;;;10.33;94.21;99666.41;5028447;28;10245;-70
2023/10/25 09:51:31;;;;;;;;;7.75;6.25;;;;;10.30;94.96;99666.00;5028110;28;10044;-69
2023/10/25 09:54:08;;;;;;;;;6.75;6.75;;;;;10.31;94.96;99662.28;5028148;28;10338;-69
2023/10/25 09:56:35;;;;;;;;;5.00;5.00;;;;;10.33;95.00;99663.69;5044494;28;10252;-69
2023/10/25 09:59:06;;;;;;;;;6.00;4.50;;;;;10.35;94.91;99661.59;5029562;28;10147;-68
2023/10/25 10:01:33;;;;;;;;;8.00;6.75;;;;;10.35;94.60;99660.78;5044750;28;10216;-68
2023/10/25 10:04:14;;;;;;;;;4.50;4.50;;;;;10.31;94.40;99643.44;5028192;28;10307;-68
2023/10/25 10:06:49;;;;;;;;;6.00;3.50;;;;;10.30;94.79;99642.63;5069161;22;10987;-67
2023/10/25 10:09:30;;;;;;;;;6.00;6.00;;;;;10.31;95.77;99636.19;5029493;28;10179;-68
2023/10/25 10:12:05;;;;;;;;;6.75;5.75;;;;;10.33;95.49;99636.81;5029854;28;10291;-68
2023/10/25 10:14:34;;;;;;;;;5.50;4.50;;;;;10.36;95.83;99633.66;5029964;28;10295;-67
2023/10/25 10:17:08;;;;;;;;;6.00;4.00;;;;;10.39;95.35;99629.69;5029379;28;10214;-67
2023/10/25 10:19:40;;;;;;;;;5.00;3.00;;;;;10.42;95.75;99626.56;5029489;28;10151;-67
2023/10/25 10:22:08;;;;;;;;;6.00;6.00;;;;;10.44;95.64;99629.84;5029529;28;10129;-67
2023/10/25 10:24:48;;;;;;;;;6.00;6.00;;;;;10.45;95.67;99628.81;5032810;28;10967;-67
2023/10/25 10:27:17;;;;;;;;;4.50;4.50;;;;;10.45;95.64;99618.06;5033509;28;10283;-67
2023/10/25 10:29:45;;;;;;;;;4.00;3.50;;;;;10.45;95.89;99617.22;5033686;28;10907;-67
2023/10/25 10:32:13;;;;;;;;;6.00;4.25;;;;;10.45;95.73;99617.22;5033825;28;10133;-68
2023/10/25 10:34:48;;;;;;;;;7.50;7.50;;;;;10.44;95.43;99610.19;5033711;28;10245;-67
2023/10/25 10:37:21;;;;;;;;;7.25;6.00;;;;;10.43;95.67;99604.00;5033362;28;10225;-66
2023/10/25 10:39:57;;;;;;;;;5.50;5.50;;;;;10.43;96.03;99604.00;5033613;28;10213;-68
2023/10/25 10:42:30;;;;;;;;;8.00;6.00;;;;;10.44;96.43;99599.44;5033718;28;10191;-67
2023/10/25 10:44:58;;;;;;;;;5.00;5.00;;;;;10.46;96.03;99602.75;5033543;28;10839;-67
2023/10/25 10:47:35;;;;;;;;;6.25;3.25;;;;;10.45;96.12;99590.31;5033104;28;10233;-67
2023/10/25 10:50:12;;;;;;;;;6.50;6.50;;;;;10.42;96.08;99586.22;5033704;28;10146;-66
2023/10/25 10:52:40;;;;;;;;;5.25;5.25;;;;;10.38;96.48;99580.47;5033317;28;10859;-67
2023/10/25 10:55:08;;;;;;;;;6.00;6.00;;;;;10.34;96.25;99573.06;5033399;28;10894;-68
2023/10/25 10:57:36;;;;;;;;;8.25;8.25;;;;;10.31;96.78;99571.63;5033019;28;10372;-67
2023/10/25 11:00:08;;;;;;;;;9.00;8.00;;;;;10.30;97.19;99572.69;5015878;28;10374;-67
2023/10/25 11:02:37;;;;;;;;;7.50;7.50;;;;;10.33;97.49;99572.25;5033330;28;10307;-67
2023/10/25 11:05:05;;;;;;;;;8.75;6.25;;;;;10.35;97.92;99570.13;5015454;28;10145;-67
2023/10/25 11:07:33;;;;;;;;;10.25;8.00;;;;;10.37;97.40;99565.38;5032659;28;10164;-67
2023/10/25 11:10:00;;;;;;;;;10.75;7.25;;;;;10.29;97.58;99565.69;5033021;28;10194;-67
2023/10/25 11:12:26;;;;;;;;;5.00;5.00;;;;;10.30;97.80;99555.72;5032990;28;10335;-66
2023/10/25 11:14:53;;;;;;;;;6.00;6.00;;;;;10.30;98.21;99550.34;5033014;28;9980;-67
2023/10/25 11:17:20;;;;;;;;;8.00;8.00;;;;;10.30;98.35;99543.09;5032685;28;10218;-67
2023/10/25 11:19:47;;;;;;;;;6.00;6.00;;;;;10.30;98.49;99542.28;5014947;28;10313;-66
2023/10/25 11:22:14;;;;;;;;;6.00;6.00;;;;;10.33;98.63;99539.97;5032492;28;10369;-65
2023/10/25 11:24:41;;;;;;;;;6.00;6.00;;;;;10.35;98.80;99532.47;5032708;28;10372;-65
2023/10/25 11:27:08;;;;;;;;;5.75;5.75;;;;;10.38;98.80;99532.03;5032458;28;10118;-65
2023/10/25 11:29:35;;;;;;;;;10.50;7.75;;;;;10.36;98.34;99531.44;5032580;28;10297;-65
2023/10/25 11:32:03;;;;;;;;;5.00;5.00;;;;;10.37;98.98;99532.25;5032639;28;10348;-66
2023/10/25 11:34:33;;;;;;;;;6.00;6.00;;;;;10.35;99.23;99521.72;5031991;28;10171;-66
2023/10/25 11:37:01;;;;;;;;;6.00;6.00;;;;;10.40;99.40;99532.63;5031885;28;10587;-65